Azure — ZCEE2 — position and weather

sailwx.info

Track history (hours):
 
Tides and Currents Weather Stations Pressure Air Temp Water Temp Dewpoint Dewpoint Depression Visibility Wind Speed Wind Dir Waves Ship Positions

Azure

Last reported at 2019-Jun-16 14:30 UTC. Time now 2019-Jun-16 14:56 UTC.
Position N 59°32' E 024°43'.

Length 289 m; draft 8.7 m.

Type: Passenger vessel. MMSI: 310610000.

Date/timePositionNaut miles runAvg speedWind from/ knotsBaromVisibWave heightAir tempDewpointWater temp
2019-Jun-16 14:30N 59°32' E 024°43'5 9.8
2019-Jun-16 14:00N 59°27' E 024°46'0 0.5
2019-Jun-16 13:29N 59°27' E 024°46'0 0.0
2019-Jun-16 13:00N 59°27' E 024°46'0 0.0
2019-Jun-16 12:29N 59°27' E 024°46'0 0.0
2019-Jun-16 11:59N 59°27' E 024°46'0 0.0
2019-Jun-16 11:28N 59°27' E 024°46'0 0.0
2019-Jun-16 11:00N 59°27' E 024°46'0 0.0
2019-Jun-16 10:30N 59°27' E 024°46'0 0.0
2019-Jun-16 09:58N 59°27' E 024°46'0 0.0
2019-Jun-16 09:28N 59°27' E 024°46'0 0.0
2019-Jun-16 08:58N 59°27' E 024°46'0 0.0
2019-Jun-16 08:30N 59°27' E 024°46'0 0.0
2019-Jun-16 07:58N 59°27' E 024°46'0 0.0
2019-Jun-16 07:28N 59°27' E 024°46'0 0.0
2019-Jun-16 06:58N 59°27' E 024°46'0 0.0
2019-Jun-16 06:29N 59°27' E 024°46'0 0.0
2019-Jun-16 05:59N 59°27' E 024°46'0 0.0
2019-Jun-16 05:29N 59°27' E 024°46'0 0.0
2019-Jun-16 05:00N 59°27' E 024°46'0 0.4
2019-Jun-16 04:30N 59°27' E 024°46'4 7.8
2019-Jun-16 04:00N 59°31' E 024°44'714.6
2019-Jun-16 03:30N 59°38' E 024°39'611.1
2019-Jun-16 03:00N 59°43' E 024°40'713.9
2019-Jun-16 02:30N 59°49' E 024°48'815.7
2019-Jun-16 02:01N 59°51' E 025°04'815.9
2019-Jun-16 01:31N 59°53' E 025°19'815.8
2019-Jun-16 01:00N 59°54' E 025°35'816.8
2019-Jun-16 00:31N 59°57' E 025°50'1117.0
2019-Jun-15 23:51N 59°59' E 026°12'616.1
2019-Jun-15 23:31N 60°00' E 026°23'917.2
2019-Jun-15 23:01N 60°01' E 026°40'917.9
2019-Jun-15 22:31N 59°60' E 026°58'917.4
2019-Jun-15 22:01N 60°03' E 027°14'918.0
2019-Jun-15 21:30N 60°07' E 027°29'918.1
2019-Jun-15 21:01N 60°12' E 027°45'9559.6
2019-Jun-15 21:00N 60°06' E 028°00'4 8.3 330 / 81015.510.8 15.011.313.5
2019-Jun-15 20:30N 60°10' E 028°03'917.7
2019-Jun-15 20:00N 60°07' E 028°20'917.2
2019-Jun-15 19:31N 60°03' E 028°35'917.6
2019-Jun-15 19:00N 60°03' E 028°53'917.6
2019-Jun-15 18:30N 60°02' E 029°11'1912.2
2019-Jun-15 16:56N 59°58' E 029°48'410.1
2019-Jun-15 16:30N 59°56' E 029°56'5 9.3
2019-Jun-15 16:00N 59°56' E 030°05'3 6.1
2019-Jun-15 15:30N 59°57' E 030°11'0 0.1
2019-Jun-15 14:56N 59°57' E 030°11'0 0.0
2019-Jun-15 14:29N 59°57' E 030°11'0 0.0
2019-Jun-15 13:53N 59°57' E 030°11'0 0.0
2019-Jun-15 13:29N 59°57' E 030°11'0 0.0
2019-Jun-15 12:59N 59°57' E 030°11'0 0.0
2019-Jun-15 12:14N 59°57' E 030°11'0 0.0
2019-Jun-15 11:28N 59°57' E 030°11'0 0.0
2019-Jun-15 10:52N 59°57' E 030°11'0 0.0
2019-Jun-15 09:40N 59°57' E 030°11'0 0.0
2019-Jun-15 09:22N 59°57' E 030°11'0 0.0
2019-Jun-15 08:55N 59°57' E 030°11'0 0.0
2019-Jun-15 08:29N 59°57' E 030°11'0 0.0
2019-Jun-15 07:57N 59°57' E 030°11'0 0.0
2019-Jun-15 07:24N 59°57' E 030°11'0 0.0
2019-Jun-15 06:57N 59°57' E 030°11'0 0.0
2019-Jun-15 06:27N 59°57' E 030°11'0 0.0
2019-Jun-15 06:00N 59°57' E 030°11'0 0.0
2019-Jun-15 05:27N 59°57' E 030°11'0 0.0
2019-Jun-15 04:48N 59°57' E 030°11'0 0.0
2019-Jun-15 04:21N 59°57' E 030°11'0 0.0
2019-Jun-15 04:00N 59°57' E 030°11'0 0.0
2019-Jun-15 03:27N 59°57' E 030°11'0 0.0
2019-Jun-15 02:42N 59°57' E 030°11'0 0.0
2019-Jun-15 02:15N 59°57' E 030°11'0 0.0
2019-Jun-15 01:48N 59°57' E 030°11'0 0.0
2019-Jun-15 01:12N 59°57' E 030°11'0 0.0
2019-Jun-15 00:51N 59°57' E 030°11'0 0.0
2019-Jun-15 00:27N 59°57' E 030°11'0 0.0
2019-Jun-15 00:00N 59°57' E 030°11'0 0.0
2019-Jun-14 23:21N 59°57' E 030°11'0 0.0
2019-Jun-14 22:48N 59°57' E 030°11'0 0.0
2019-Jun-14 22:09N 59°57' E 030°11'0 0.0
2019-Jun-14 22:00N 59°57' E 030°11'0 0.0
2019-Jun-14 21:27N 59°57' E 030°11'0 0.0
2019-Jun-14 20:39N 59°57' E 030°11'0 0.0
2019-Jun-14 20:15N 59°57' E 030°11'0 0.0
2019-Jun-14 19:47N 59°57' E 030°11'0 0.0
2019-Jun-14 19:26N 59°57' E 030°11'0 0.0
2019-Jun-14 18:53N 59°57' E 030°11'0 0.0
2019-Jun-14 18:19N 59°57' E 030°11'0 0.0
2019-Jun-14 17:57N 59°57' E 030°11'0 0.0
2019-Jun-14 17:30N 59°57' E 030°11'0 0.0
2019-Jun-14 16:59N 59°57' E 030°11'0 0.0
2019-Jun-14 16:29N 59°57' E 030°11'0 0.0
2019-Jun-14 15:30N 59°57' E 030°11'0 0.0
2019-Jun-14 14:59N 59°57' E 030°11'0 0.0
2019-Jun-14 14:26N 59°57' E 030°11'0 0.0
2019-Jun-14 13:58N 59°57' E 030°11'0 0.0
2019-Jun-14 12:37N 59°57' E 030°11'0 0.0
2019-Jun-14 12:22N 59°57' E 030°11'0 0.0
2019-Jun-14 11:52N 59°57' E 030°11'0 0.0
2019-Jun-14 11:18N 59°57' E 030°11'0 0.0
2019-Jun-14 10:51N 59°57' E 030°11'0 0.0
2019-Jun-14 10:09N 59°57' E 030°11'0 0.0
2019-Jun-14 09:44N 59°57' E 030°11'0 0.0
2019-Jun-14 09:17N 59°57' E 030°11'0 0.0
2019-Jun-14 08:56N 59°57' E 030°11'0 0.0
2019-Jun-14 08:29N 59°57' E 030°11'0 0.0
2019-Jun-14 07:58N 59°57' E 030°11'0 0.0
2019-Jun-14 07:25N 59°57' E 030°11'0 0.0
2019-Jun-14 06:54N 59°57' E 030°11'0 0.0
2019-Jun-14 06:09N 59°57' E 030°11'0 0.0
2019-Jun-14 05:56N 59°57' E 030°11'0 0.0
2019-Jun-14 05:29N 59°57' E 030°11'0 0.0
2019-Jun-14 04:58N 59°57' E 030°11'0 0.0
2019-Jun-14 04:30N 59°57' E 030°11'0 0.0
2019-Jun-14 03:58N 59°57' E 030°11'0 0.3
2019-Jun-14 03:30N 59°57' E 030°11'2 4.6
2019-Jun-14 03:00N 59°57' E 030°07'5 9.3
2019-Jun-14 02:30N 59°56' E 029°57'510.1
2019-Jun-14 02:00N 59°58' E 029°48'4 8.2
2019-Jun-14 01:28N 59°60' E 029°40'910.7
2019-Jun-14 00:39N 60°02' E 029°23'314.4
2019-Jun-14 00:25N 60°02' E 029°17'716.0
2019-Jun-14 00:01N 60°02' E 029°03'815.3
2019-Jun-13 23:31N 60°02' E 028°48'714.2
2019-Jun-13 23:01N 60°02' E 028°34'713.9
2019-Jun-13 22:31N 60°05' E 028°21'714.1
2019-Jun-13 22:01N 60°08' E 028°09'714.6
2019-Jun-13 21:30N 60°10' E 027°54'714.3
2019-Jun-13 21:01N 60°09' E 027°40'816.6
2019-Jun-13 20:31N 60°04' E 027°26'917.1
2019-Jun-13 20:01N 60°00' E 027°11'815.3
2019-Jun-13 19:30N 59°58' E 026°56'815.7
2019-Jun-13 19:01N 59°59' E 026°41'816.0
2019-Jun-13 18:30N 59°58' E 026°25'2415.7
2019-Jun-13 16:58N 59°52' E 025°39'715.6
2019-Jun-13 16:29N 59°50' E 025°24'816.2
2019-Jun-13 16:00N 59°48' E 025°09'813.8
2019-Jun-13 15:25N 59°55' E 024°58'613.6
2019-Jun-13 15:01N 60°00' E 024°56'611.7
2019-Jun-13 14:30N 60°06' E 024°54'3 6.5
2019-Jun-13 14:01N 60°09' E 024°55'0 0.0
2019-Jun-13 13:30N 60°09' E 024°55'0 0.0
2019-Jun-13 12:59N 60°09' E 024°55'0 0.0
2019-Jun-13 12:29N 60°09' E 024°55'0 0.0
2019-Jun-13 11:59N 60°09' E 024°55'0 0.0
2019-Jun-13 11:28N 60°09' E 024°55'0 0.0
2019-Jun-13 11:00N 60°09' E 024°55'0 0.0
2019-Jun-13 10:30N 60°09' E 024°55'0 0.0
2019-Jun-13 10:00N 60°09' E 024°55'0 0.0
2019-Jun-13 09:28N 60°09' E 024°55'0 0.0
2019-Jun-13 09:00N 60°09' E 024°55'0 0.0
2019-Jun-13 08:29N 60°09' E 024°55'0 0.0
2019-Jun-13 08:00N 60°09' E 024°55'0 0.0
2019-Jun-13 07:28N 60°09' E 024°55'0 0.0
2019-Jun-13 06:57N 60°09' E 024°55'0 0.0
2019-Jun-13 06:30N 60°09' E 024°55'0 0.0
2019-Jun-13 05:56N 60°09' E 024°55'0 0.0
2019-Jun-13 05:29N 60°09' E 024°55'0 0.0
2019-Jun-13 04:58N 60°09' E 024°55'0 0.1
2019-Jun-13 04:30N 60°09' E 024°55'0 0.9
2019-Jun-13 04:00N 60°09' E 024°54'612.1
2019-Jun-13 03:30N 60°03' E 024°54'510.0
2019-Jun-13 03:00N 59°58' E 024°57'612.4
2019-Jun-13 02:30N 59°52' E 024°51'815.1
2019-Jun-13 02:00N 59°46' E 024°44'815.4
2019-Jun-13 01:30N 59°44' E 024°29'815.6
2019-Jun-13 01:00N 59°41' E 024°14'816.1
2019-Jun-13 00:29N 59°38' E 023°58'816.0
2019-Jun-13 00:00N 59°35' E 023°44'815.9
2019-Jun-12 23:30N 59°34' E 023°29'816.5
2019-Jun-12 23:00N 59°32' E 023°13'816.6
2019-Jun-12 22:30N 59°29' E 022°58'916.4
2019-Jun-12 21:57N 59°26' E 022°41'716.2
2019-Jun-12 21:30N 59°23' E 022°29'1630.4
2019-Jun-12 21:00N 59°12' E 022°06'1110.0 080 / 351018.310.8 13.0 9.112.4
2019-Jun-12 19:55N 59°07' E 021°47'1016.3
2019-Jun-12 19:19N 58°60' E 021°36'516.4
2019-Jun-12 19:00N 58°55' E 021°30'19316.2
2019-Jun-12 07:07N 56°10' E 018°25'216.4
2019-Jun-12 06:59N 56°09' E 018°21'816.3
2019-Jun-12 06:30N 56°05' E 018°09'1016.3
2019-Jun-12 05:55N 56°00' E 017°54'1016.5
2019-Jun-12 05:20N 55°56' E 017°39'616.4
2019-Jun-12 05:00N 55°54' E 017°30'7687.5
2019-Jun-12 05:00N 55°48' E 017°24'811.8 070 / 281011.4 0.5 13.513.513.0
2019-Jun-12 04:19N 55°51' E 017°11'616.9
2019-Jun-12 03:59N 55°49' E 017°01'816.9
2019-Jun-12 03:30N 55°48' E 016°47'816.9
2019-Jun-12 03:00N 55°46' E 016°32'816.8
2019-Jun-12 02:30N 55°44' E 016°18'1716.8
2019-Jun-12 01:30N 55°41' E 015°49'816.4
2019-Jun-12 01:00N 55°39' E 015°34'816.2
2019-Jun-12 00:30N 55°35' E 015°21'816.6
2019-Jun-12 00:00N 55°32' E 015°08'917.2
2019-Jun-11 23:30N 55°29' E 014°54'917.2
2019-Jun-11 23:00N 55°24' E 014°41'917.0
2019-Jun-11 22:29N 55°18' E 014°31'816.8
2019-Jun-11 22:00N 55°11' E 014°22'916.7
2019-Jun-11 21:29N 55°05' E 014°12'816.1
2019-Jun-11 21:00N 54°60' E 014°02'2141.8
2019-Jun-11 21:00N 55°00' E 014°06'5417.6 050 / 351011.7 0.5 14.513.614.0
2019-Jun-11 17:57N 54°42' E 012°38'2916.6
2019-Jun-11 16:13N 54°21' E 012°06'314.0
2019-Jun-11 15:59N 54°18' E 012°04'511.2
2019-Jun-11 15:30N 54°12' E 012°05'2 3.4
2019-Jun-11 14:59N 54°11' E 012°06'0 0.0
2019-Jun-11 14:11N 54°11' E 012°06'0 0.0
2019-Jun-11 13:53N 54°11' E 012°06'0 0.0
2019-Jun-11 13:26N 54°11' E 012°06'0 0.0
2019-Jun-11 12:44N 54°11' E 012°06'0 0.0
2019-Jun-11 11:53N 54°11' E 012°06'0 0.0
2019-Jun-11 10:56N 54°11' E 012°06'0 0.0
2019-Jun-11 10:14N 54°11' E 012°06'0 0.0
2019-Jun-11 09:59N 54°11' E 012°06'0 0.0
2019-Jun-11 09:14N 54°11' E 012°06'0 0.0
2019-Jun-11 08:23N 54°11' E 012°06'0 0.0
2019-Jun-11 06:32N 54°11' E 012°06'0 0.0
2019-Jun-11 06:30N 54°11' E 012°06'1 1.7
2019-Jun-11 05:58N 54°10' E 012°06'1610.8
2019-Jun-11 04:27N 54°21' E 011°46'614.1
2019-Jun-11 04:00N 54°25' E 011°38'714.2
2019-Jun-11 03:30N 54°29' E 011°28'713.8
2019-Jun-11 03:00N 54°33' E 011°18'713.7
2019-Jun-11 02:30N 54°36' E 011°07'713.5
2019-Jun-11 02:00N 54°40' E 010°57'611.9
2019-Jun-11 01:30N 54°45' E 010°52'612.2
2019-Jun-11 01:01N 54°51' E 010°52'816.1
2019-Jun-11 00:31N 54°58' E 010°58'817.0
2019-Jun-11 00:00N 55°06' E 011°02'816.6
2019-Jun-10 23:30N 55°14' E 011°06'3716.8
2019-Jun-10 21:18N 55°50' E 010°48'517.4
2019-Jun-10 21:00N 55°54' E 010°54'1217.0
2019-Jun-10 20:19N 56°04' E 011°05'616.3
2019-Jun-10 19:58N 56°08' E 011°12'613.1
2019-Jun-10 19:30N 56°13' E 011°19'816.8
2019-Jun-10 19:00N 56°20' E 011°26'916.6
2019-Jun-10 18:28N 56°28' E 011°34'816.4
2019-Jun-10 18:00N 56°35' E 011°41'816.6
2019-Jun-10 17:30N 56°42' E 011°48'816.4
2019-Jun-10 17:00N 56°50' E 011°49'918.0
2019-Jun-10 16:30N 56°58' E 011°43'816.9
2019-Jun-10 16:00N 57°06' E 011°38'7587.7
2019-Jun-10 16:00N 57°00' E 011°36'1325.3 010 / 171018.410.8 20.010.915.0
2019-Jun-10 15:30N 57°12' E 011°32'815.7
2019-Jun-10 15:00N 57°20' E 011°28'816.1
2019-Jun-10 14:30N 57°27' E 011°23'816.0
2019-Jun-10 14:00N 57°33' E 011°12'816.4
2019-Jun-10 13:30N 57°39' E 011°01'816.5
2019-Jun-10 13:00N 57°44' E 010°50'815.7
2019-Jun-10 12:30N 57°49' E 010°39'916.8
2019-Jun-10 11:58N 57°50' E 010°22'816.4
2019-Jun-10 11:30N 57°50' E 010°08'816.9
2019-Jun-10 11:00N 57°49' E 009°52'815.3
2019-Jun-10 10:30N 57°48' E 009°38'1835.3
2019-Jun-10 10:00N 57°36' E 009°12'729.3 240 / 31021.0 5.4 13.011.113.0
2019-Jun-10 09:45N 57°41' E 009°21'715.1
2019-Jun-10 09:16N 57°37' E 009°11'514.9
2019-Jun-10 08:57N 57°34' E 009°03'714.8
2019-Jun-10 08:28N 57°30' E 008°52'714.6
2019-Jun-10 07:58N 57°27' E 008°40'1514.7
2019-Jun-10 06:55N 57°18' E 008°16'614.4
2019-Jun-10 06:30N 57°14' E 008°08'914.5
2019-Jun-10 05:51N 57°06' E 007°59'1415.9
2019-Jun-10 05:00N 56°54' E 007°48'10815.5 220 / 51020.810.8 17.0 9.412.0
2019-Jun-09 22:00N 55°24' E 006°00'7813.0 180 / 81021.6 5.4 13.011.113.0
2019-Jun-09 16:00N 54°18' E 004°48'8715.7 220 / 121021.610.8 16.510.913.0
2019-Jun-09 10:25N 53°05' E 003°28'1841.4
2019-Jun-09 10:00N 52°48' E 003°18'10127.9 210 / 161022.310.8 13.5-8.413.5
2019-Jun-09 09:55N 52°57' E 003°23'716.2
2019-Jun-09 09:30N 52°51' E 003°19'816.5
2019-Jun-09 09:01N 52°44' E 003°12'1016.7
2019-Jun-09 08:25N 52°35' E 003°04'716.8
2019-Jun-09 08:00N 52°29' E 002°58'917.1
2019-Jun-09 07:27N 52°21' E 002°51'1117.4
2019-Jun-09 06:50N 52°12' E 002°43'817.3
2019-Jun-09 06:23N 52°04' E 002°42'1024.7
2019-Jun-09 06:00N 51°54' E 002°42'3118.5 210 / 121021.910.8 16.510.914.0
2019-Jun-09 05:58N 51°57' E 002°44'712.3
2019-Jun-09 05:26N 51°51' E 002°39'816.5
2019-Jun-09 04:58N 51°44' E 002°33'1718.0
2019-Jun-09 04:00N 51°31' E 002°15'815.9
2019-Jun-09 03:30N 51°24' E 002°08'713.8
2019-Jun-09 03:00N 51°17' E 002°07'918.4
2019-Jun-09 02:30N 51°11' E 001°56'1019.3
2019-Jun-09 02:00N 51°06' E 001°43'1019.1
2019-Jun-09 01:30N 50°59' E 001°33'1119.0
2019-Jun-09 00:56N 50°48' E 001°28'1617.7
2019-Jun-09 00:03N 50°36' E 001°13'218.2
2019-Jun-08 23:56N 50°34' E 001°11'3133.3
2019-Jun-08 23:00N 50°24' E 000°24'10 7.2 240 / 181022.510.8 13.011.110.5
2019-Jun-08 21:37N 50°22' E 000°09'217.5
2019-Jun-08 21:30N 50°22' E 000°06'817.1
2019-Jun-08 21:00N 50°23' W 000°07'917.0
2019-Jun-08 20:30N 50°26' W 000°20'816.7
2019-Jun-08 20:00N 50°30' W 000°31'816.5
2019-Jun-08 19:30N 50°34' W 000°43'816.0
2019-Jun-08 19:00N 50°38' W 000°54'713.2
2019-Jun-08 18:30N 50°43' W 001°01'917.2
2019-Jun-08 18:00N 50°46' W 001°13'5 9.2
2019-Jun-08 17:30N 50°49' W 001°18'510.2
2019-Jun-08 17:01N 50°53' W 001°24'2 4.0
2019-Jun-08 16:30N 50°54' W 001°26'1 0.1
2019-Jun-08 05:36N 50°54' W 001°25'1 6.9
2019-Jun-08 05:30N 50°53' W 001°25'4 7.8
2019-Jun-08 05:00N 50°51' W 001°20'4 8.8
2019-Jun-08 04:31N 50°47' W 001°19'815.8
2019-Jun-08 04:00N 50°45' W 001°06'815.5
2019-Jun-08 03:31N 50°40' W 000°57'5 9.4
2019-Jun-08 03:00N 50°38' W 000°50'917.7
2019-Jun-08 02:30N 50°36' W 000°37'918.8
2019-Jun-08 02:00N 50°34' W 000°22'918.2
2019-Jun-08 01:30N 50°33' W 000°08'1217.4
2019-Jun-08 00:49N 50°35' E 000°11'717.3
2019-Jun-08 00:25N 50°37' E 000°21'1417.1
2019-Jun-07 23:35N 50°42' E 000°42'117.6
2019-Jun-07 23:30N 50°43' E 000°44'918.1
2019-Jun-07 23:00N 50°48' E 000°56'1019.5
2019-Jun-07 22:30N 50°52' E 001°09'1220.4
2019-Jun-07 21:57N 50°59' E 001°24'921.4
2019-Jun-07 21:30N 51°06' E 001°34'1121.1
2019-Jun-07 21:00N 51°14' E 001°45'1020.2
2019-Jun-07 20:30N 51°23' E 001°52'1019.5
2019-Jun-07 20:00N 51°33' E 001°57'1019.2
2019-Jun-07 19:30N 51°41' E 002°03'1019.1
2019-Jun-07 19:00N 51°50' E 002°10'918.3
2019-Jun-07 18:31N 51°59' E 002°13'918.3
2019-Jun-07 18:00N 52°08' E 002°16'918.2
2019-Jun-07 17:31N 52°17' E 002°19'918.2
2019-Jun-07 17:00N 52°26' E 002°22'918.2
2019-Jun-07 16:30N 52°34' E 002°25'918.6
2019-Jun-07 16:01N 52°44' E 002°29'919.0
2019-Jun-07 15:31N 52°53' E 002°32'1019.7
2019-Jun-07 15:00N 53°02' E 002°36'1020.4
2019-Jun-07 14:30N 53°12' E 002°42'1020.5
2019-Jun-07 14:01N 53°22' E 002°48'8216.4
2019-Jun-07 09:00N 54°42' E 003°18'10724.6 110 / 231011.510.8 14.011.213.0
2019-Jun-07 04:38N 56°29' E 003°39'320.8
2019-Jun-07 04:30N 56°31' E 003°40'1120.7
2019-Jun-07 03:59N 56°42' E 003°41'1020.6
2019-Jun-07 03:30N 56°52' E 003°43'1020.5
2019-Jun-07 03:00N 57°02' E 003°45'1020.5
2019-Jun-07 02:29N 57°13' E 003°46'1020.4
2019-Jun-07 02:00N 57°23' E 003°47'1020.4
2019-Jun-07 01:30N 57°33' E 003°49'1020.4
2019-Jun-07 01:00N 57°43' E 003°50'1020.4
2019-Jun-07 00:30N 57°53' E 003°52'1020.4
2019-Jun-07 00:01N 58°03' E 003°53'1120.6
2019-Jun-06 23:30N 58°14' E 003°55'1020.3
2019-Jun-06 23:00N 58°24' E 003°56'1019.9
2019-Jun-06 22:30N 58°34' E 003°58'1019.5
2019-Jun-06 22:00N 58°43' E 003°59'1019.7
2019-Jun-06 21:30N 58°53' E 004°00'1019.6
2019-Jun-06 21:00N 59°03' E 004°02'151236.9
2019-Jun-06 21:00N 58°48' E 003°54'2551.2 220 / 211009.910.8 10.5 9.510.0
2019-Jun-06 20:30N 59°13' E 004°01'1019.4
2019-Jun-06 20:00N 59°22' E 003°59'1018.8
2019-Jun-06 19:28N 59°32' E 004°00'918.7
2019-Jun-06 19:00N 59°41' E 004°01'1019.0
2019-Jun-06 18:29N 59°51' E 004°02'918.7
2019-Jun-06 18:00N 59°60' E 004°02'1018.7
2019-Jun-06 17:29N 60°10' E 004°03'919.2
2019-Jun-06 17:00N 60°19' E 004°03'919.0
2019-Jun-06 16:30N 60°27' E 004°11'1019.7
2019-Jun-06 15:59N 60°36' E 004°23'919.6
2019-Jun-06 15:30N 60°44' E 004°34'713.5
2019-Jun-06 15:00N 60°43' E 004°47'  
Track history (hours):
 
Tides and Currents Weather Stations Pressure Air Temp Water Temp Dewpoint Dewpoint Depression Visibility Wind Speed Wind Dir Waves Ship Positions

Azure

Last reported at 2019-Jun-16 14:30 UTC. Time now 2019-Jun-16 14:56 UTC.
Position N 59°32' E 024°43'.

Length 289 m; draft 8.7 m.

Type: Passenger vessel. MMSI: 310610000.

Date/timePositionNaut miles runAvg speedWind from/ knotsBaromVisibWave heightAir tempDewpointWater temp
2019-Jun-16 14:30N 59°32' E 024°43'5 9.8
2019-Jun-16 14:00N 59°27' E 024°46'0 0.5
2019-Jun-16 13:29N 59°27' E 024°46'0 0.0
2019-Jun-16 13:00N 59°27' E 024°46'0 0.0
2019-Jun-16 12:29N 59°27' E 024°46'0 0.0
2019-Jun-16 11:59N 59°27' E 024°46'0 0.0
2019-Jun-16 11:28N 59°27' E 024°46'0 0.0
2019-Jun-16 11:00N 59°27' E 024°46'0 0.0
2019-Jun-16 10:30N 59°27' E 024°46'0 0.0
2019-Jun-16 09:58N 59°27' E 024°46'0 0.0
2019-Jun-16 09:28N 59°27' E 024°46'0 0.0
2019-Jun-16 08:58N 59°27' E 024°46'0 0.0
2019-Jun-16 08:30N 59°27' E 024°46'0 0.0
2019-Jun-16 07:58N 59°27' E 024°46'0 0.0
2019-Jun-16 07:28N 59°27' E 024°46'0 0.0
2019-Jun-16 06:58N 59°27' E 024°46'0 0.0
2019-Jun-16 06:29N 59°27' E 024°46'0 0.0
2019-Jun-16 05:59N 59°27' E 024°46'0 0.0
2019-Jun-16 05:29N 59°27' E 024°46'0 0.0
2019-Jun-16 05:00N 59°27' E 024°46'0 0.4
2019-Jun-16 04:30N 59°27' E 024°46'4 7.8
2019-Jun-16 04:00N 59°31' E 024°44'714.6
2019-Jun-16 03:30N 59°38' E 024°39'611.1
2019-Jun-16 03:00N 59°43' E 024°40'713.9
2019-Jun-16 02:30N 59°49' E 024°48'815.7
2019-Jun-16 02:01N 59°51' E 025°04'815.9
2019-Jun-16 01:31N 59°53' E 025°19'815.8
2019-Jun-16 01:00N 59°54' E 025°35'816.8
2019-Jun-16 00:31N 59°57' E 025°50'1117.0
2019-Jun-15 23:51N 59°59' E 026°12'616.1
2019-Jun-15 23:31N 60°00' E 026°23'917.2
2019-Jun-15 23:01N 60°01' E 026°40'917.9
2019-Jun-15 22:31N 59°60' E 026°58'917.4
2019-Jun-15 22:01N 60°03' E 027°14'918.0
2019-Jun-15 21:30N 60°07' E 027°29'918.1
2019-Jun-15 21:01N 60°12' E 027°45'9559.6
2019-Jun-15 21:00N 60°06' E 028°00'4 8.3 330 / 81015.510.8 15.011.313.5
2019-Jun-15 20:30N 60°10' E 028°03'917.7
2019-Jun-15 20:00N 60°07' E 028°20'917.2
2019-Jun-15 19:31N 60°03' E 028°35'917.6
2019-Jun-15 19:00N 60°03' E 028°53'917.6
2019-Jun-15 18:30N 60°02' E 029°11'1912.2
2019-Jun-15 16:56N 59°58' E 029°48'410.1
2019-Jun-15 16:30N 59°56' E 029°56'5 9.3
2019-Jun-15 16:00N 59°56' E 030°05'3 6.1
2019-Jun-15 15:30N 59°57' E 030°11'0 0.1
2019-Jun-15 14:56N 59°57' E 030°11'0 0.0
2019-Jun-15 14:29N 59°57' E 030°11'0 0.0
2019-Jun-15 13:53N 59°57' E 030°11'0 0.0
2019-Jun-15 13:29N 59°57' E 030°11'0 0.0
2019-Jun-15 12:59N 59°57' E 030°11'0 0.0
2019-Jun-15 12:14N 59°57' E 030°11'0 0.0
2019-Jun-15 11:28N 59°57' E 030°11'0 0.0
2019-Jun-15 10:52N 59°57' E 030°11'0 0.0
2019-Jun-15 09:40N 59°57' E 030°11'0 0.0
2019-Jun-15 09:22N 59°57' E 030°11'0 0.0
2019-Jun-15 08:55N 59°57' E 030°11'0 0.0
2019-Jun-15 08:29N 59°57' E 030°11'0 0.0
2019-Jun-15 07:57N 59°57' E 030°11'0 0.0
2019-Jun-15 07:24N 59°57' E 030°11'0 0.0
2019-Jun-15 06:57N 59°57' E 030°11'0 0.0
2019-Jun-15 06:27N 59°57' E 030°11'0 0.0
2019-Jun-15 06:00N 59°57' E 030°11'0 0.0
2019-Jun-15 05:27N 59°57' E 030°11'0 0.0
2019-Jun-15 04:48N 59°57' E 030°11'0 0.0
2019-Jun-15 04:21N 59°57' E 030°11'0 0.0
2019-Jun-15 04:00N 59°57' E 030°11'0 0.0
2019-Jun-15 03:27N 59°57' E 030°11'0 0.0
2019-Jun-15 02:42N 59°57' E 030°11'0 0.0
2019-Jun-15 02:15N 59°57' E 030°11'0 0.0
2019-Jun-15 01:48N 59°57' E 030°11'0 0.0
2019-Jun-15 01:12N 59°57' E 030°11'0 0.0
2019-Jun-15 00:51N 59°57' E 030°11'0 0.0
2019-Jun-15 00:27N 59°57' E 030°11'0 0.0
2019-Jun-15 00:00N 59°57' E 030°11'0 0.0
2019-Jun-14 23:21N 59°57' E 030°11'0 0.0
2019-Jun-14 22:48N 59°57' E 030°11'0 0.0
2019-Jun-14 22:09N 59°57' E 030°11'0 0.0
2019-Jun-14 22:00N 59°57' E 030°11'0 0.0
2019-Jun-14 21:27N 59°57' E 030°11'0 0.0
2019-Jun-14 20:39N 59°57' E 030°11'0 0.0
2019-Jun-14 20:15N 59°57' E 030°11'0 0.0
2019-Jun-14 19:47N 59°57' E 030°11'0 0.0
2019-Jun-14 19:26N 59°57' E 030°11'0 0.0
2019-Jun-14 18:53N 59°57' E 030°11'0 0.0
2019-Jun-14 18:19N 59°57' E 030°11'0 0.0
2019-Jun-14 17:57N 59°57' E 030°11'0 0.0
2019-Jun-14 17:30N 59°57' E 030°11'0 0.0
2019-Jun-14 16:59N 59°57' E 030°11'0 0.0
2019-Jun-14 16:29N 59°57' E 030°11'0 0.0
2019-Jun-14 15:30N 59°57' E 030°11'0 0.0
2019-Jun-14 14:59N 59°57' E 030°11'0 0.0
2019-Jun-14 14:26N 59°57' E 030°11'0 0.0
2019-Jun-14 13:58N 59°57' E 030°11'0 0.0
2019-Jun-14 12:37N 59°57' E 030°11'0 0.0
2019-Jun-14 12:22N 59°57' E 030°11'0 0.0
2019-Jun-14 11:52N 59°57' E 030°11'0 0.0
2019-Jun-14 11:18N 59°57' E 030°11'0 0.0
2019-Jun-14 10:51N 59°57' E 030°11'0 0.0
2019-Jun-14 10:09N 59°57' E 030°11'0 0.0
2019-Jun-14 09:44N 59°57' E 030°11'0 0.0
2019-Jun-14 09:17N 59°57' E 030°11'0 0.0
2019-Jun-14 08:56N 59°57' E 030°11'0 0.0
2019-Jun-14 08:29N 59°57' E 030°11'0 0.0
2019-Jun-14 07:58N 59°57' E 030°11'0 0.0
2019-Jun-14 07:25N 59°57' E 030°11'0 0.0
2019-Jun-14 06:54N 59°57' E 030°11'0 0.0
2019-Jun-14 06:09N 59°57' E 030°11'0 0.0
2019-Jun-14 05:56N 59°57' E 030°11'0 0.0
2019-Jun-14 05:29N 59°57' E 030°11'0 0.0
2019-Jun-14 04:58N 59°57' E 030°11'0 0.0
2019-Jun-14 04:30N 59°57' E 030°11'0 0.0
2019-Jun-14 03:58N 59°57' E 030°11'0 0.3
2019-Jun-14 03:30N 59°57' E 030°11'2 4.6
2019-Jun-14 03:00N 59°57' E 030°07'5 9.3
2019-Jun-14 02:30N 59°56' E 029°57'510.1
2019-Jun-14 02:00N 59°58' E 029°48'4 8.2
2019-Jun-14 01:28N 59°60' E 029°40'910.7
2019-Jun-14 00:39N 60°02' E 029°23'314.4
2019-Jun-14 00:25N 60°02' E 029°17'716.0
2019-Jun-14 00:01N 60°02' E 029°03'815.3
2019-Jun-13 23:31N 60°02' E 028°48'714.2
2019-Jun-13 23:01N 60°02' E 028°34'713.9
2019-Jun-13 22:31N 60°05' E 028°21'714.1
2019-Jun-13 22:01N 60°08' E 028°09'714.6
2019-Jun-13 21:30N 60°10' E 027°54'714.3
2019-Jun-13 21:01N 60°09' E 027°40'816.6
2019-Jun-13 20:31N 60°04' E 027°26'917.1
2019-Jun-13 20:01N 60°00' E 027°11'815.3
2019-Jun-13 19:30N 59°58' E 026°56'815.7
2019-Jun-13 19:01N 59°59' E 026°41'816.0
2019-Jun-13 18:30N 59°58' E 026°25'2415.7
2019-Jun-13 16:58N 59°52' E 025°39'715.6
2019-Jun-13 16:29N 59°50' E 025°24'816.2
2019-Jun-13 16:00N 59°48' E 025°09'813.8
2019-Jun-13 15:25N 59°55' E 024°58'613.6
2019-Jun-13 15:01N 60°00' E 024°56'611.7
2019-Jun-13 14:30N 60°06' E 024°54'3 6.5
2019-Jun-13 14:01N 60°09' E 024°55'0 0.0
2019-Jun-13 13:30N 60°09' E 024°55'0 0.0
2019-Jun-13 12:59N 60°09' E 024°55'0 0.0
2019-Jun-13 12:29N 60°09' E 024°55'0 0.0
2019-Jun-13 11:59N 60°09' E 024°55'0 0.0
2019-Jun-13 11:28N 60°09' E 024°55'0 0.0
2019-Jun-13 11:00N 60°09' E 024°55'0 0.0
2019-Jun-13 10:30N 60°09' E 024°55'0 0.0
2019-Jun-13 10:00N 60°09' E 024°55'0 0.0
2019-Jun-13 09:28N 60°09' E 024°55'0 0.0
2019-Jun-13 09:00N 60°09' E 024°55'0 0.0
2019-Jun-13 08:29N 60°09' E 024°55'0 0.0
2019-Jun-13 08:00N 60°09' E 024°55'0 0.0
2019-Jun-13 07:28N 60°09' E 024°55'0 0.0
2019-Jun-13 06:57N 60°09' E 024°55'0 0.0
2019-Jun-13 06:30N 60°09' E 024°55'0 0.0
2019-Jun-13 05:56N 60°09' E 024°55'0 0.0
2019-Jun-13 05:29N 60°09' E 024°55'0 0.0
2019-Jun-13 04:58N 60°09' E 024°55'0 0.1
2019-Jun-13 04:30N 60°09' E 024°55'0 0.9
2019-Jun-13 04:00N 60°09' E 024°54'612.1
2019-Jun-13 03:30N 60°03' E 024°54'510.0
2019-Jun-13 03:00N 59°58' E 024°57'612.4
2019-Jun-13 02:30N 59°52' E 024°51'815.1
2019-Jun-13 02:00N 59°46' E 024°44'815.4
2019-Jun-13 01:30N 59°44' E 024°29'815.6
2019-Jun-13 01:00N 59°41' E 024°14'816.1
2019-Jun-13 00:29N 59°38' E 023°58'816.0
2019-Jun-13 00:00N 59°35' E 023°44'815.9
2019-Jun-12 23:30N 59°34' E 023°29'816.5
2019-Jun-12 23:00N 59°32' E 023°13'816.6
2019-Jun-12 22:30N 59°29' E 022°58'916.4
2019-Jun-12 21:57N 59°26' E 022°41'716.2
2019-Jun-12 21:30N 59°23' E 022°29'1630.4
2019-Jun-12 21:00N 59°12' E 022°06'1110.0 080 / 351018.310.8 13.0 9.112.4
2019-Jun-12 19:55N 59°07' E 021°47'1016.3
2019-Jun-12 19:19N 58°60' E 021°36'516.4
2019-Jun-12 19:00N 58°55' E 021°30'19316.2
2019-Jun-12 07:07N 56°10' E 018°25'216.4
2019-Jun-12 06:59N 56°09' E 018°21'816.3
2019-Jun-12 06:30N 56°05' E 018°09'1016.3
2019-Jun-12 05:55N 56°00' E 017°54'1016.5
2019-Jun-12 05:20N 55°56' E 017°39'616.4
2019-Jun-12 05:00N 55°54' E 017°30'7687.5
2019-Jun-12 05:00N 55°48' E 017°24'811.8 070 / 281011.4 0.5 13.513.513.0
2019-Jun-12 04:19N 55°51' E 017°11'616.9
2019-Jun-12 03:59N 55°49' E 017°01'816.9
2019-Jun-12 03:30N 55°48' E 016°47'816.9
2019-Jun-12 03:00N 55°46' E 016°32'816.8
2019-Jun-12 02:30N 55°44' E 016°18'1716.8
2019-Jun-12 01:30N 55°41' E 015°49'816.4
2019-Jun-12 01:00N 55°39' E 015°34'816.2
2019-Jun-12 00:30N 55°35' E 015°21'816.6
2019-Jun-12 00:00N 55°32' E 015°08'917.2
2019-Jun-11 23:30N 55°29' E 014°54'917.2
2019-Jun-11 23:00N 55°24' E 014°41'917.0
2019-Jun-11 22:29N 55°18' E 014°31'816.8
2019-Jun-11 22:00N 55°11' E 014°22'916.7
2019-Jun-11 21:29N 55°05' E 014°12'816.1
2019-Jun-11 21:00N 54°60' E 014°02'2141.8
2019-Jun-11 21:00N 55°00' E 014°06'5417.6 050 / 351011.7 0.5 14.513.614.0
2019-Jun-11 17:57N 54°42' E 012°38'2916.6
2019-Jun-11 16:13N 54°21' E 012°06'314.0
2019-Jun-11 15:59N 54°18' E 012°04'511.2
2019-Jun-11 15:30N 54°12' E 012°05'2 3.4
2019-Jun-11 14:59N 54°11' E 012°06'0 0.0
2019-Jun-11 14:11N 54°11' E 012°06'0 0.0
2019-Jun-11 13:53N 54°11' E 012°06'0 0.0
2019-Jun-11 13:26N 54°11' E 012°06'0 0.0
2019-Jun-11 12:44N 54°11' E 012°06'0 0.0
2019-Jun-11 11:53N 54°11' E 012°06'0 0.0
2019-Jun-11 10:56N 54°11' E 012°06'0 0.0
2019-Jun-11 10:14N 54°11' E 012°06'0 0.0
2019-Jun-11 09:59N 54°11' E 012°06'0 0.0
2019-Jun-11 09:14N 54°11' E 012°06'0 0.0
2019-Jun-11 08:23N 54°11' E 012°06'0 0.0
2019-Jun-11 06:32N 54°11' E 012°06'0 0.0
2019-Jun-11 06:30N 54°11' E 012°06'1 1.7
2019-Jun-11 05:58N 54°10' E 012°06'1610.8
2019-Jun-11 04:27N 54°21' E 011°46'614.1
2019-Jun-11 04:00N 54°25' E 011°38'714.2
2019-Jun-11 03:30N 54°29' E 011°28'713.8
2019-Jun-11 03:00N 54°33' E 011°18'713.7
2019-Jun-11 02:30N 54°36' E 011°07'713.5
2019-Jun-11 02:00N 54°40' E 010°57'611.9
2019-Jun-11 01:30N 54°45' E 010°52'612.2
2019-Jun-11 01:01N 54°51' E 010°52'816.1
2019-Jun-11 00:31N 54°58' E 010°58'817.0
2019-Jun-11 00:00N 55°06' E 011°02'816.6
2019-Jun-10 23:30N 55°14' E 011°06'3716.8
2019-Jun-10 21:18N 55°50' E 010°48'517.4
2019-Jun-10 21:00N 55°54' E 010°54'1217.0
2019-Jun-10 20:19N 56°04' E 011°05'616.3
2019-Jun-10 19:58N 56°08' E 011°12'613.1
2019-Jun-10 19:30N 56°13' E 011°19'816.8
2019-Jun-10 19:00N 56°20' E 011°26'916.6
2019-Jun-10 18:28N 56°28' E 011°34'816.4
2019-Jun-10 18:00N 56°35' E 011°41'816.6
2019-Jun-10 17:30N 56°42' E 011°48'816.4
2019-Jun-10 17:00N 56°50' E 011°49'918.0
2019-Jun-10 16:30N 56°58' E 011°43'816.9
2019-Jun-10 16:00N 57°06' E 011°38'7587.7
2019-Jun-10 16:00N 57°00' E 011°36'1325.3 010 / 171018.410.8 20.010.915.0
2019-Jun-10 15:30N 57°12' E 011°32'815.7
2019-Jun-10 15:00N 57°20' E 011°28'816.1
2019-Jun-10 14:30N 57°27' E 011°23'816.0
2019-Jun-10 14:00N 57°33' E 011°12'816.4
2019-Jun-10 13:30N 57°39' E 011°01'816.5
2019-Jun-10 13:00N 57°44' E 010°50'815.7
2019-Jun-10 12:30N 57°49' E 010°39'916.8
2019-Jun-10 11:58N 57°50' E 010°22'816.4
2019-Jun-10 11:30N 57°50' E 010°08'816.9
2019-Jun-10 11:00N 57°49' E 009°52'815.3
2019-Jun-10 10:30N 57°48' E 009°38'1835.3
2019-Jun-10 10:00N 57°36' E 009°12'729.3 240 / 31021.0 5.4 13.011.113.0
2019-Jun-10 09:45N 57°41' E 009°21'715.1
2019-Jun-10 09:16N 57°37' E 009°11'514.9
2019-Jun-10 08:57N 57°34' E 009°03'714.8
2019-Jun-10 08:28N 57°30' E 008°52'714.6
2019-Jun-10 07:58N 57°27' E 008°40'1514.7
2019-Jun-10 06:55N 57°18' E 008°16'614.4
2019-Jun-10 06:30N 57°14' E 008°08'914.5
2019-Jun-10 05:51N 57°06' E 007°59'1415.9
2019-Jun-10 05:00N 56°54' E 007°48'10815.5 220 / 51020.810.8 17.0 9.412.0
2019-Jun-09 22:00N 55°24' E 006°00'7813.0 180 / 81021.6 5.4 13.011.113.0
2019-Jun-09 16:00N 54°18' E 004°48'8715.7 220 / 121021.610.8 16.510.913.0
2019-Jun-09 10:25N 53°05' E 003°28'1841.4
2019-Jun-09 10:00N 52°48' E 003°18'10127.9 210 / 161022.310.8 13.5-8.413.5
2019-Jun-09 09:55N 52°57' E 003°23'716.2
2019-Jun-09 09:30N 52°51' E 003°19'816.5
2019-Jun-09 09:01N 52°44' E 003°12'1016.7
2019-Jun-09 08:25N 52°35' E 003°04'716.8
2019-Jun-09 08:00N 52°29' E 002°58'917.1
2019-Jun-09 07:27N 52°21' E 002°51'1117.4
2019-Jun-09 06:50N 52°12' E 002°43'817.3
2019-Jun-09 06:23N 52°04' E 002°42'1024.7
2019-Jun-09 06:00N 51°54' E 002°42'3118.5 210 / 121021.910.8 16.510.914.0
2019-Jun-09 05:58N 51°57' E 002°44'712.3
2019-Jun-09 05:26N 51°51' E 002°39'816.5
2019-Jun-09 04:58N 51°44' E 002°33'1718.0
2019-Jun-09 04:00N 51°31' E 002°15'815.9
2019-Jun-09 03:30N 51°24' E 002°08'713.8
2019-Jun-09 03:00N 51°17' E 002°07'918.4
2019-Jun-09 02:30N 51°11' E 001°56'1019.3
2019-Jun-09 02:00N 51°06' E 001°43'1019.1
2019-Jun-09 01:30N 50°59' E 001°33'1119.0
2019-Jun-09 00:56N 50°48' E 001°28'1617.7
2019-Jun-09 00:03N 50°36' E 001°13'218.2
2019-Jun-08 23:56N 50°34' E 001°11'3133.3
2019-Jun-08 23:00N 50°24' E 000°24'10 7.2 240 / 181022.510.8 13.011.110.5
2019-Jun-08 21:37N 50°22' E 000°09'217.5
2019-Jun-08 21:30N 50°22' E 000°06'817.1
2019-Jun-08 21:00N 50°23' W 000°07'917.0
2019-Jun-08 20:30N 50°26' W 000°20'816.7
2019-Jun-08 20:00N 50°30' W 000°31'816.5
2019-Jun-08 19:30N 50°34' W 000°43'816.0
2019-Jun-08 19:00N 50°38' W 000°54'713.2
2019-Jun-08 18:30N 50°43' W 001°01'917.2
2019-Jun-08 18:00N 50°46' W 001°13'5 9.2
2019-Jun-08 17:30N 50°49' W 001°18'510.2
2019-Jun-08 17:01N 50°53' W 001°24'2 4.0
2019-Jun-08 16:30N 50°54' W 001°26'1 0.1
2019-Jun-08 05:36N 50°54' W 001°25'1 6.9
2019-Jun-08 05:30N 50°53' W 001°25'4 7.8
2019-Jun-08 05:00N 50°51' W 001°20'4 8.8
2019-Jun-08 04:31N 50°47' W 001°19'815.8
2019-Jun-08 04:00N 50°45' W 001°06'815.5
2019-Jun-08 03:31N 50°40' W 000°57'5 9.4
2019-Jun-08 03:00N 50°38' W 000°50'917.7
2019-Jun-08 02:30N 50°36' W 000°37'918.8
2019-Jun-08 02:00N 50°34' W 000°22'918.2
2019-Jun-08 01:30N 50°33' W 000°08'1217.4
2019-Jun-08 00:49N 50°35' E 000°11'717.3
2019-Jun-08 00:25N 50°37' E 000°21'1417.1
2019-Jun-07 23:35N 50°42' E 000°42'117.6
2019-Jun-07 23:30N 50°43' E 000°44'918.1
2019-Jun-07 23:00N 50°48' E 000°56'1019.5
2019-Jun-07 22:30N 50°52' E 001°09'1220.4
2019-Jun-07 21:57N 50°59' E 001°24'921.4
2019-Jun-07 21:30N 51°06' E 001°34'1121.1
2019-Jun-07 21:00N 51°14' E 001°45'1020.2
2019-Jun-07 20:30N 51°23' E 001°52'1019.5
2019-Jun-07 20:00N 51°33' E 001°57'1019.2
2019-Jun-07 19:30N 51°41' E 002°03'1019.1
2019-Jun-07 19:00N 51°50' E 002°10'918.3
2019-Jun-07 18:31N 51°59' E 002°13'918.3
2019-Jun-07 18:00N 52°08' E 002°16'918.2
2019-Jun-07 17:31N 52°17' E 002°19'918.2
2019-Jun-07 17:00N 52°26' E 002°22'918.2
2019-Jun-07 16:30N 52°34' E 002°25'918.6
2019-Jun-07 16:01N 52°44' E 002°29'919.0
2019-Jun-07 15:31N 52°53' E 002°32'1019.7
2019-Jun-07 15:00N 53°02' E 002°36'1020.4
2019-Jun-07 14:30N 53°12' E 002°42'1020.5
2019-Jun-07 14:01N 53°22' E 002°48'8216.4
2019-Jun-07 09:00N 54°42' E 003°18'10724.6 110 / 231011.510.8 14.011.213.0
2019-Jun-07 04:38N 56°29' E 003°39'320.8
2019-Jun-07 04:30N 56°31' E 003°40'1120.7
2019-Jun-07 03:59N 56°42' E 003°41'1020.6
2019-Jun-07 03:30N 56°52' E 003°43'1020.5
2019-Jun-07 03:00N 57°02' E 003°45'1020.5
2019-Jun-07 02:29N 57°13' E 003°46'1020.4
2019-Jun-07 02:00N 57°23' E 003°47'1020.4
2019-Jun-07 01:30N 57°33' E 003°49'1020.4
2019-Jun-07 01:00N 57°43' E 003°50'1020.4
2019-Jun-07 00:30N 57°53' E 003°52'1020.4
2019-Jun-07 00:01N 58°03' E 003°53'1120.6
2019-Jun-06 23:30N 58°14' E 003°55'1020.3
2019-Jun-06 23:00N 58°24' E 003°56'1019.9
2019-Jun-06 22:30N 58°34' E 003°58'1019.5
2019-Jun-06 22:00N 58°43' E 003°59'1019.7
2019-Jun-06 21:30N 58°53' E 004°00'1019.6
2019-Jun-06 21:00N 59°03' E 004°02'151236.9
2019-Jun-06 21:00N 58°48' E 003°54'2551.2 220 / 211009.910.8 10.5 9.510.0
2019-Jun-06 20:30N 59°13' E 004°01'1019.4
2019-Jun-06 20:00N 59°22' E 003°59'1018.8
2019-Jun-06 19:28N 59°32' E 004°00'918.7
2019-Jun-06 19:00N 59°41' E 004°01'1019.0
2019-Jun-06 18:29N 59°51' E 004°02'918.7
2019-Jun-06 18:00N 59°60' E 004°02'1018.7
2019-Jun-06 17:29N 60°10' E 004°03'919.2
2019-Jun-06 17:00N 60°19' E 004°03'919.0
2019-Jun-06 16:30N 60°27' E 004°11'1019.7
2019-Jun-06 15:59N 60°36' E 004°23'919.6
2019-Jun-06 15:30N 60°44' E 004°34'713.5
2019-Jun-06 15:00N 60°43' E 004°47'  

Dump ship's entire track history